Time;durP1;ratioP1;P1;durP2;ratioP2;P2;SDS_P1;SDS_P2;PMS_P1;PMS_P2;Temp;Humidity;BMP_temperature;BMP_pressure;BME280_temperature;BME280_humidity;BME280_pressure;Samples;Min_cycle;Max_cycle;Signal;HPM_P1;HPM_P2
2022/12/25 00:01:14;;;;;;;78.92;35.60;;;;;;;6.07;99.02;99111.36;1748106;81;20968;-37
2022/12/25 00:03:43;;;;;;;70.72;33.28;;;;;;;6.03;99.14;99116.32;1748121;81;21036;-38
2022/12/25 00:06:10;;;;;;;69.72;33.18;;;;;;;6.09;98.75;99123.93;1748136;81;21043;-37
2022/12/25 00:08:37;;;;;;;73.42;33.88;;;;;;;6.05;98.98;99132.77;1748388;81;21022;-37
2022/12/25 00:11:05;;;;;;;;;;;;;;;6.12;98.92;99129.01;1750719;81;20975;-37
2022/12/25 00:13:31;;;;;;;67.85;31.97;;;;;;;6.09;98.79;99130.89;1748220;81;20105;-38
2022/12/25 00:15:57;;;;;;;71.77;32.13;;;;;;;6.14;98.52;99136.78;1748193;81;21019;-37
2022/12/25 00:18:23;;;;;;;63.58;32.15;;;;;;;6.10;98.59;99142.58;1748112;81;21020;-38
2022/12/25 00:21:00;;;;;;;62.73;30.30;;;;;;;6.00;98.98;99144.30;1748105;81;21473;-36
2022/12/25 00:23:27;;;;;;;56.37;29.70;;;;;;;6.08;98.69;99148.33;1746386;81;21031;-38
2022/12/25 00:25:53;;;;;;;56.73;30.13;;;;;;;6.09;98.75;99159.17;1748383;81;20984;-38
2022/12/25 00:28:20;;;;;;;63.95;30.65;;;;;;;6.14;98.44;99161.13;1748087;81;20988;-37
2022/12/25 00:30:46;;;;;;;54.42;28.10;;;;;;;6.11;98.36;99165.61;1748172;81;20968;-38
2022/12/25 00:33:12;;;;;;;53.48;27.50;;;;;;;6.08;98.33;99165.75;1748091;81;21019;-39
2022/12/25 00:35:38;;;;;;;48.42;25.60;;;;;;;6.07;98.51;99178.40;1748138;81;20991;-36
2022/12/25 00:38:04;;;;;;;52.65;25.70;;;;;;;6.06;98.42;99178.02;1748113;81;20972;-36
2022/12/25 00:40:30;;;;;;;51.65;27.15;;;;;;;6.04;98.32;99183.30;1748064;81;21446;-36
2022/12/25 00:42:56;;;;;;;49.73;27.52;;;;;;;5.96;99.15;99182.72;1748086;81;20977;-40
2022/12/25 00:45:21;;;;;;;47.58;25.88;;;;;;;6.01;98.68;99186.02;1748122;81;21433;-39
2022/12/25 00:47:47;;;;;;;51.23;27.13;;;;;;;6.00;98.63;99186.91;1747977;81;21003;-37
2022/12/25 00:50:13;;;;;;;47.10;26.65;;;;;;;6.02;98.89;99186.42;1748094;81;21027;-39
2022/12/25 00:52:39;;;;;;;50.10;26.55;;;;;;;5.99;99.42;99189.14;1748140;81;21402;-39
2022/12/25 00:55:05;;;;;;;46.45;25.68;;;;;;;6.02;99.41;99187.73;1748105;81;21066;-39
2022/12/25 00:57:33;;;;;;;47.93;25.85;;;;;;;6.06;99.06;99190.61;1748058;81;20976;-37
2022/12/25 00:59:58;;;;;;;45.63;24.77;;;;;;;6.09;99.36;99198.34;1748307;81;21016;-37
2022/12/25 01:02:24;;;;;;;47.58;26.10;;;;;;;6.09;99.36;99199.64;1748174;81;21470;-37
2022/12/25 01:04:55;;;;;;;50.88;26.07;;;;;;;6.12;99.54;99199.97;1748095;81;21464;-38
2022/12/25 01:07:24;;;;;;;46.42;24.40;;;;;;;6.08;99.56;99199.70;1748168;81;20983;-39
2022/12/25 01:12:38;;;;;;;38.90;22.30;;;;;;;6.08;99.66;99206.22;1748192;81;20960;-38
2022/12/25 01:15:07;;;;;;;38.40;21.33;;;;;;;6.05;100.00;99203.72;1748104;81;20983;-37
2022/12/25 01:17:33;;;;;;;41.85;24.00;;;;;;;6.13;99.49;99192.51;1748057;81;20983;-37
2022/12/25 01:20:00;;;;;;;37.58;22.15;;;;;;;6.08;99.86;99194.01;1748122;81;20987;-37
2022/12/25 01:22:25;;;;;;;41.53;21.65;;;;;;;6.15;99.88;99200.70;1747980;81;20972;-38
2022/12/25 01:24:51;;;;;;;42.15;22.67;;;;;;;6.20;99.88;99203.11;1737511;82;20972;-36
2022/12/25 01:27:17;;;;;;;43.10;23.50;;;;;;;6.22;100.00;99212.20;1748051;81;21167;-36
2022/12/25 01:29:45;;;;;;;43.33;22.52;;;;;;;6.25;99.75;99212.09;1748110;81;20976;-37
2022/12/25 01:32:11;;;;;;;38.58;21.52;;;;;;;6.27;99.57;99208.95;1748093;82;20980;-39
2022/12/25 01:34:37;;;;;;;38.40;21.52;;;;;;;6.33;99.57;99204.79;1748066;81;20984;-36
2022/12/25 01:37:03;;;;;;;39.05;21.57;;;;;;;6.36;99.58;99202.53;1748074;81;21032;-37
2022/12/25 01:39:29;;;;;;;38.48;21.48;;;;;;;6.37;99.61;99203.78;1748061;81;21485;-38
2022/12/25 01:41:56;;;;;;;35.03;20.37;;;;;;;6.36;99.56;99208.59;1748052;81;20979;-37
2022/12/25 01:44:48;;;;;;;38.48;20.95;;;;;;;6.41;99.47;99209.73;1747995;82;21011;-37
2022/12/25 01:47:16;;;;;;;38.28;20.68;;;;;;;6.37;99.68;99209.01;1748084;81;20964;-36
2022/12/25 01:49:47;;;;;;;40.15;20.48;;;;;;;6.33;99.76;99211.32;1747931;81;21009;-36
2022/12/25 01:52:17;;;;;;;35.17;20.68;;;;;;;6.31;100.00;99211.41;1748060;81;21564;-38
2022/12/25 01:54:56;;;;;;;35.95;21.12;;;;;;;6.34;100.00;99211.73;1748049;81;20980;-37
2022/12/25 01:57:26;;;;;;;34.48;20.27;;;;;;;6.37;99.76;99223.37;1748014;81;20988;-39
2022/12/25 01:59:54;;;;;;;36.80;20.43;;;;;;;6.35;100.00;99209.53;1747475;81;21027;-38
2022/12/25 02:02:20;;;;;;;34.55;19.92;;;;;;;6.38;100.00;99206.77;1747967;81;20956;-38
2022/12/25 02:05:00;;;;;;;35.17;19.50;;;;;;;6.42;99.75;99208.37;1748007;82;21011;-38
2022/12/25 02:07:28;;;;;;;33.63;18.60;;;;;;;6.42;99.87;99217.52;1748039;82;20972;-40
2022/12/25 02:09:54;;;;;;;31.77;18.25;;;;;;;6.42;99.56;99209.68;1748051;81;20988;-37
2022/12/25 02:12:27;;;;;;;33.45;19.07;;;;;;;6.43;99.43;99215.28;1748013;81;20960;-39
2022/12/25 02:14:57;;;;;;;35.35;18.90;;;;;;;6.36;100.00;99222.13;1748015;81;20975;-37
2022/12/25 02:17:40;;;;;;;34.43;19.17;;;;;;;6.33;100.00;99220.46;1748014;81;20973;-37
2022/12/25 02:20:43;;;;;;;31.73;18.55;;;;;;;6.38;100.00;99222.91;1748108;81;20979;-37
2022/12/25 02:23:31;;;;;;;34.48;18.60;;;;;;;6.37;99.96;99214.23;1699681;81;21016;-40
2022/12/25 02:26:17;;;;;;;33.30;18.77;;;;;;;6.31;100.00;99218.37;1748018;82;20952;-37
2022/12/25 02:28:51;;;;;;;37.03;21.60;;;;;;;6.32;100.00;99234.45;1737835;82;20991;-37
2022/12/25 02:31:31;;;;;;;38.40;19.40;;;;;;;6.34;100.00;99237.38;1746783;81;20944;-39
2022/12/25 02:34:16;;;;;;;34.38;19.82;;;;;;;6.36;100.00;99236.02;1747968;81;21027;-36
2022/12/25 02:36:54;;;;;;;33.63;18.67;;;;;;;6.37;100.00;99229.91;1748046;81;21490;-37
2022/12/25 03:12:43;;;;;;;46.92;22.27;;;;;;;6.60;100.00;99246.42;1761991;80;20983;-38
2022/12/25 03:17:59;;;;;;;42.13;20.35;;;;;;;6.62;100.00;99263.75;1761851;80;21043;-37
2022/12/25 03:28:41;;;;;;;43.05;21.87;;;;;;;6.69;100.00;99270.44;1761816;80;21075;-38
2022/12/25 03:31:35;;;;;;;46.90;21.87;;;;;;;6.72;100.00;99275.98;1761913;81;21529;-39
2022/12/25 04:38:31;;;;;;;43.38;21.02;;;;;;;6.47;100.00;99325.73;1761510;80;20979;-37
2022/12/25 04:40:59;;;;;;;35.85;17.75;;;;;;;6.46;100.00;99326.66;1761375;81;20988;-38
2022/12/25 04:43:25;;;;;;;40.78;17.80;;;;;;;6.42;100.00;99331.14;1750094;80;21040;-36
2022/12/25 04:45:57;;;;;;;37.00;17.92;;;;;;;6.40;100.00;99323.80;1748204;81;20992;-37
2022/12/25 04:48:24;;;;;;;38.85;19.30;;;;;;;6.38;100.00;99329.53;1748156;81;21039;-38
2022/12/25 04:50:50;;;;;;;42.20;19.13;;;;;;;6.33;100.00;99334.07;1748395;81;20992;-39
2022/12/25 04:53:16;;;;;;;33.92;16.30;;;;;;;6.31;100.00;99335.89;1748295;81;21446;-38
2022/12/25 04:55:42;;;;;;;35.05;17.42;;;;;;;6.27;100.00;99337.77;1748089;81;20971;-39
2022/12/25 04:58:08;;;;;;;33.35;17.12;;;;;;;6.23;100.00;99336.64;1748135;81;21031;-37
2022/12/25 05:00:34;;;;;;;33.10;17.40;;;;;;;6.21;100.00;99335.39;1748154;81;21031;-38
2022/12/25 05:03:00;;;;;;;34.83;16.62;;;;;;;6.22;100.00;99336.23;1748104;81;21007;-39
2022/12/25 05:05:26;;;;;;;33.98;16.55;;;;;;;6.25;100.00;99335.67;1748088;81;20988;-38
2022/12/25 05:07:52;;;;;;;32.80;15.55;;;;;;;6.28;100.00;99337.34;1748124;81;20984;-37
2022/12/25 05:10:17;;;;;;;36.48;16.17;;;;;;;6.25;100.00;99340.89;1748125;81;21000;-37
2022/12/25 05:12:43;;;;;;;37.58;16.50;;;;;;;6.28;100.00;99343.86;1748200;81;20991;-39
2022/12/25 05:15:10;;;;;;;26.30;14.63;;;;;;;6.26;100.00;99336.55;1748136;81;21472;-37
2022/12/25 05:17:36;;;;;;;31.00;14.78;;;;;;;6.29;100.00;99339.89;1748111;81;21027;-37
2022/12/25 05:20:04;;;;;;;31.68;14.98;;;;;;;6.30;100.00;99339.43;1748122;81;20999;-37
2022/12/25 05:22:30;;;;;;;29.98;15.63;;;;;;;6.36;100.00;99342.27;1748081;81;20984;-38
2022/12/25 05:24:56;;;;;;;33.18;14.45;;;;;;;6.40;100.00;99347.30;1748114;81;20968;-39
2022/12/25 05:27:21;;;;;;;29.20;13.58;;;;;;;6.35;100.00;99355.79;1748072;82;20999;-39
2022/12/25 05:29:47;;;;;;;25.52;13.20;;;;;;;6.39;100.00;99357.38;1748119;81;20995;-37
2022/12/25 05:32:13;;;;;;;28.17;13.95;;;;;;;6.33;100.00;99354.53;1748118;81;20964;-38
2022/12/25 05:34:39;;;;;;;24.90;12.50;;;;;;;6.35;100.00;99361.02;1748179;81;21473;-37
2022/12/25 05:37:05;;;;;;;28.57;12.95;;;;;;;6.33;100.00;99363.67;1748082;81;21029;-37
2022/12/25 05:39:30;;;;;;;28.07;13.10;;;;;;;6.33;100.00;99364.11;1748077;81;20995;-37
2022/12/25 05:41:56;;;;;;;25.02;13.18;;;;;;;6.30;100.00;99366.39;1748001;81;21027;-38
2022/12/25 05:44:23;;;;;;;28.90;12.28;;;;;;;6.27;100.00;99365.65;1748180;81;20968;-38
2022/12/25 05:46:49;;;;;;;22.82;12.10;;;;;;;6.32;100.00;99358.50;1748110;81;20960;-38
2022/12/25 05:49:14;;;;;;;22.70;12.18;;;;;;;6.28;100.00;99366.06;1748063;82;20996;-37
2022/12/25 05:51:40;;;;;;;23.32;12.30;;;;;;;6.29;100.00;99373.84;1748052;81;21086;-39
2022/12/25 05:54:06;;;;;;;25.05;11.38;;;;;;;6.29;100.00;99376.89;1748154;81;20992;-38
2022/12/25 05:56:32;;;;;;;21.55;10.32;;;;;;;6.26;100.00;99381.78;1748067;81;21019;-39
2022/12/25 05:58:58;;;;;;;25.45;11.08;;;;;;;6.28;100.00;99384.34;1748169;81;21026;-37
2022/12/25 06:01:27;;;;;;;20.00;10.88;;;;;;;6.30;100.00;99383.83;1725393;82;20964;-37
2022/12/25 06:03:53;;;;;;;19.37;10.30;;;;;;;6.30;100.00;99379.91;1748085;82;21026;-39
2022/12/25 06:06:19;;;;;;;20.75;10.68;;;;;;;6.29;100.00;99386.03;1748040;81;21014;-38
2022/12/25 06:08:45;;;;;;;22.00;11.05;;;;;;;6.30;100.00;99387.75;1748084;82;21034;-38
2022/12/25 06:11:13;;;;;;;22.00;10.98;;;;;;;6.31;100.00;99377.25;1748121;82;21584;-37
2022/12/25 06:13:39;;;;;;;21.60;11.12;;;;;;;6.30;100.00;99385.98;1748102;81;21500;-37
2022/12/25 06:16:08;;;;;;;26.07;11.57;;;;;;;6.26;100.00;99383.55;1748165;81;21573;-38
2022/12/25 06:18:36;;;;;;;27.17;12.75;;;;;;;6.28;100.00;99388.27;1748055;81;20999;-38
2022/12/25 06:21:08;;;;;;;23.95;12.00;;;;;;;6.29;100.00;99400.39;1748059;81;20991;-39
2022/12/25 06:23:35;;;;;;;31.62;12.35;;;;;;;6.29;100.00;99406.92;1748155;81;21508;-37
2022/12/25 06:26:08;;;;;;;27.32;12.90;;;;;;;6.35;100.00;99409.34;1748298;82;20992;-37
2022/12/25 06:28:34;;;;;;;28.90;13.05;;;;;;;6.30;100.00;99412.09;1748111;82;20996;-38
2022/12/25 06:31:15;;;;;;;35.48;13.55;;;;;;;6.36;100.00;99416.25;1748028;82;20996;-36
2022/12/25 06:33:41;;;;;;;29.07;12.20;;;;;;;6.32;100.00;99419.42;1748061;81;20977;-36
2022/12/25 06:36:13;;;;;;;31.85;14.20;;;;;;;6.37;100.00;99428.84;1748388;82;21032;-37
2022/12/25 06:38:39;;;;;;;28.05;12.88;;;;;;;6.36;100.00;99436.30;1748081;81;21008;-36
2022/12/25 06:41:09;;;;;;;30.82;14.07;;;;;;;6.30;100.00;99429.53;1748172;81;21473;-36
2022/12/25 06:43:36;;;;;;;36.65;16.77;;;;;;;6.34;100.00;99438.95;1747969;81;21020;-36
2022/12/25 06:46:09;;;;;;;28.67;14.83;;;;;;;6.38;100.00;99443.16;1748261;81;20996;-36
2022/12/25 06:48:36;;;;;;;32.38;14.65;;;;;;;6.39;100.00;99445.34;1748037;81;21512;-39
2022/12/25 06:51:03;;;;;;;35.03;15.50;;;;;;;6.40;100.00;99449.17;1748179;82;20988;-38
2022/12/25 06:53:29;;;;;;;32.53;14.75;;;;;;;6.39;100.00;99454.02;1748128;81;20980;-38
2022/12/25 06:56:07;;;;;;;36.83;16.07;;;;;;;6.40;100.00;99460.09;1748076;81;21136;-38
2022/12/25 06:58:32;;;;;;;39.05;15.72;;;;;;;6.38;100.00;99460.60;1748009;81;21000;-38
2022/12/25 07:00:58;;;;;;;40.98;16.20;;;;;;;6.37;100.00;99467.59;1748086;81;20968;-38
2022/12/25 07:03:28;;;;;;;38.78;16.80;;;;;;;6.30;100.00;99470.02;1748128;81;21454;-40
2022/12/25 07:05:54;;;;;;;30.92;16.12;;;;;;;6.30;100.00;99482.61;1748041;81;21458;-37
2022/12/25 07:08:19;;;;;;;37.00;16.32;;;;;;;6.33;100.00;99486.44;1747294;81;21089;-36
2022/12/25 07:10:45;;;;;;;35.70;16.50;;;;;;;6.33;100.00;99488.17;1746869;81;21083;-39
2022/12/25 07:13:11;;;;;;;39.15;16.52;;;;;;;6.34;100.00;99497.73;1747967;81;21008;-39
2022/12/25 07:15:37;;;;;;;37.98;17.48;;;;;;;6.37;100.00;99500.67;1748038;81;21485;-38
2022/12/25 07:18:03;;;;;;;37.70;17.95;;;;;;;6.37;100.00;99501.55;1747997;82;21334;-38
2022/12/25 07:20:29;;;;;;;40.55;17.25;;;;;;;6.39;100.00;99498.89;1748145;81;21322;-36
2022/12/25 07:22:55;;;;;;;34.03;17.73;;;;;;;6.38;100.00;99506.31;1747943;81;21382;-40
2022/12/25 07:25:21;;;;;;;31.77;16.75;;;;;;;6.38;100.00;99520.22;1748011;81;21592;-37
2022/12/25 07:27:47;;;;;;;33.30;16.20;;;;;;;6.40;100.00;99530.62;1747906;81;21340;-39
2022/12/25 07:30:13;;;;;;;30.68;15.75;;;;;;;6.43;100.00;99526.60;1748188;81;21518;-38
2022/12/25 07:32:39;;;;;;;36.13;17.02;;;;;;;6.43;100.00;99528.75;1748149;81;20999;-37
2022/12/25 07:35:05;;;;;;;32.80;15.32;;;;;;;6.43;100.00;99525.30;1748209;81;21596;-39
2022/12/25 07:37:31;;;;;;;31.77;16.10;;;;;;;6.48;100.00;99522.92;1748135;81;21493;-38
2022/12/25 07:39:57;;;;;;;32.45;14.70;;;;;;;6.45;100.00;99532.16;1748175;81;20984;-38
2022/12/25 07:42:22;;;;;;;30.02;14.98;;;;;;;6.48;100.00;99534.67;1748337;81;21528;-39
2022/12/25 07:44:48;;;;;;;35.60;15.63;;;;;;;6.44;100.00;99534.39;1761548;81;20964;-37
2022/12/25 07:47:14;;;;;;;33.98;15.50;;;;;;;6.50;100.00;99534.17;1761642;81;20999;-41
2022/12/25 07:49:40;;;;;;;32.15;15.93;;;;;;;6.52;100.00;99534.12;1761426;81;21038;-39
2022/12/25 07:52:05;;;;;;;34.00;14.70;;;;;;;6.57;100.00;99531.33;1761465;81;20972;-41
2022/12/25 07:54:31;;;;;;;29.77;14.50;;;;;;;6.62;100.00;99529.41;1761463;81;20999;-37
2022/12/25 07:56:57;;;;;;;32.45;15.88;;;;;;;6.57;100.00;99526.10;1761415;81;21472;-39
2022/12/25 07:59:23;;;;;;;36.13;16.12;;;;;;;6.59;99.84;99530.84;1761417;81;21038;-38
2022/12/25 08:01:49;;;;;;;32.58;14.65;;;;;;;6.62;99.74;99535.95;1761416;81;21345;-38
2022/12/25 08:04:15;;;;;;;33.38;16.37;;;;;;;6.54;100.00;99531.84;1761427;81;21571;-40
2022/12/25 08:06:40;;;;;;;37.67;19.67;;;;;;;6.62;100.00;99543.78;1761433;81;20999;-38
2022/12/25 08:09:09;;;;;;;45.60;20.08;;;;;;;6.66;100.00;99545.41;1761449;81;20971;-38
2022/12/25 08:11:36;;;;;;;41.48;19.10;;;;;;;6.66;100.00;99545.41;1761439;81;21010;-40
2022/12/25 08:14:06;;;;;;;30.40;15.85;;;;;;;6.64;100.00;99544.58;1761793;81;21042;-39
2022/12/25 08:16:32;;;;;;;36.53;15.38;;;;;;;6.64;100.00;99536.74;1761429;81;21003;-38
2022/12/25 08:18:58;;;;;;;37.38;14.95;;;;;;;6.70;100.00;99547.00;1761468;81;21034;-37
2022/12/25 08:21:24;;;;;;;26.55;13.62;;;;;;;6.72;100.00;99544.72;1761417;81;21035;-37
2022/12/25 08:23:49;;;;;;;29.72;13.80;;;;;;;6.77;100.00;99552.84;1761389;81;20964;-37
2022/12/25 08:26:21;;;;;;;31.05;13.43;;;;;;;6.76;100.00;99557.69;1761532;80;21035;-38
2022/12/25 08:28:48;;;;;;;35.15;14.18;;;;;;;6.82;100.00;99562.69;1761394;81;21007;-39
2022/12/25 08:31:26;;;;;;;34.03;14.10;;;;;;;6.85;100.00;99564.73;1761572;81;20987;-38
2022/12/25 08:33:56;;;;;;;25.27;13.35;;;;;;;6.86;100.00;99564.30;1761422;80;21034;-39
2022/12/25 08:36:22;;;;;;;32.48;15.03;;;;;;;6.88;99.96;99562.02;1761387;81;21552;-40
2022/12/25 08:38:48;;;;;;;35.35;15.35;;;;;;;6.90;99.79;99564.13;1761540;81;20984;-38
2022/12/25 08:41:15;;;;;;;36.77;15.38;;;;;;;6.95;99.78;99561.79;1761472;81;21007;-39
2022/12/25 08:43:41;;;;;;;43.27;15.00;;;;;;;6.96;99.80;99564.81;1755908;81;20984;-38
2022/12/25 08:46:08;;;;;;;41.00;15.53;;;;;;;6.98;99.65;99570.84;1748359;81;20965;-37
2022/12/25 08:48:34;;;;;;;39.30;16.17;;;;;;;7.00;99.59;99575.09;1748052;82;21039;-39
2022/12/25 08:51:02;;;;;;;42.40;15.53;;;;;;;7.00;99.50;99580.78;1748154;82;20996;-40
2022/12/25 08:53:28;;;;;;;;;;;;;;;7.03;99.56;99579.38;1751002;81;20988;-39
2022/12/25 08:55:58;;;;;;;35.38;15.23;;;;;;;7.02;99.45;99575.04;1748052;82;20408;-38
2022/12/25 08:58:25;;;;;;;38.63;14.20;;;;;;;7.04;99.49;99581.94;1748055;81;20999;-37
2022/12/25 09:00:51;;;;;;;35.27;15.43;;;;;;;7.10;99.36;99584.78;1748332;81;20987;-38
2022/12/25 09:03:17;;;;;;;41.88;17.65;;;;;;;7.13;99.44;99589.91;1748129;81;20992;-39
2022/12/25 09:05:43;;;;;;;32.48;14.13;;;;;;;7.17;99.42;99582.34;1748113;81;21004;-39
2022/12/25 09:08:08;;;;;;;34.92;15.13;;;;;;;7.21;99.21;99591.78;1748134;81;20995;-41
2022/12/25 09:10:36;;;;;;;38.53;14.73;;;;;;;7.18;98.89;99589.27;1748034;82;21043;-40
2022/12/25 09:13:03;;;;;;;29.95;12.63;;;;;;;7.23;99.02;99600.42;1748189;81;20991;-39
2022/12/25 09:15:30;;;;;;;30.27;13.95;;;;;;;7.28;99.00;99595.88;1748183;81;21357;-41
2022/12/25 09:17:55;;;;;;;35.40;14.80;;;;;;;7.30;98.82;99588.82;1748399;81;21176;-45
2022/12/25 09:20:21;;;;;;;39.48;15.63;;;;;;;7.30;98.62;99591.44;1747970;81;21446;-38
2022/12/25 09:22:47;;;;;;;30.82;15.23;;;;;;;7.32;98.75;99587.92;1748043;81;20984;-36
2022/12/25 09:25:13;;;;;;;28.95;13.20;;;;;;;7.35;98.72;99589.97;1747997;81;20968;-39
2022/12/25 09:27:38;;;;;;;33.25;13.28;;;;;;;7.41;98.67;99583.66;1748008;81;20992;-36
2022/12/25 09:30:06;;;;;;;35.13;13.32;;;;;;;7.42;98.17;99590.14;1748065;81;21034;-36
2022/12/25 09:32:32;;;;;;;33.08;14.10;;;;;;;7.44;98.27;99587.44;1748082;81;21552;-36
2022/12/25 09:34:58;;;;;;;31.25;13.25;;;;;;;7.46;98.27;99593.50;1748110;81;20976;-37
2022/12/25 09:37:23;;;;;;;31.60;16.07;;;;;;;7.46;98.13;99598.27;1748090;81;21496;-37
2022/12/25 09:39:49;;;;;;;25.35;14.70;;;;;;;7.45;98.09;99604.86;1747959;82;20995;-37
2022/12/25 09:42:30;;;;;;;40.30;16.57;;;;;;;7.47;98.18;99596.03;1747973;82;20999;-38
2022/12/25 09:45:10;;;;;;;26.87;14.45;;;;;;;7.51;98.13;99595.45;1758860;81;21019;-38
2022/12/25 09:47:39;;;;;;;33.50;15.15;;;;;;;7.56;98.02;99597.91;1761340;80;21450;-38
2022/12/25 09:50:21;;;;;;;30.27;15.55;;;;;;;7.58;97.69;99593.00;1761358;81;21525;-39
2022/12/25 09:53:17;;;;;;;29.80;13.98;;;;;;;7.61;97.78;99592.90;1761368;81;20975;-37
2022/12/25 09:55:51;;;;;;;22.60;11.95;;;;;;;7.65;97.55;99591.02;1761246;81;21012;-38
2022/12/25 09:58:17;;;;;;;35.03;14.55;;;;;;;7.63;97.40;99592.84;1760374;81;21002;-37
2022/12/25 10:00:55;;;;;;;41.70;22.98;;;;;;;7.65;97.30;99601.02;1761420;81;21023;-38
2022/12/25 10:03:52;;;;;;;;;;;;;;;7.62;97.17;99601.59;1763961;81;21038;-39
2022/12/25 10:06:46;;;;;;;28.40;12.53;;;;;;;7.60;96.46;99604.27;1761344;81;20117;-37
2022/12/25 10:09:26;;;;;;;26.55;12.53;;;;;;;7.60;96.63;99604.27;1760861;81;21483;-36
2022/12/25 10:12:22;;;;;;;26.48;11.73;;;;;;;7.59;96.80;99610.43;1761359;81;21467;-39
2022/12/25 10:15:21;;;;;;;46.33;20.30;;;;;;;7.61;96.80;99604.67;1761472;80;21006;-38
2022/12/25 10:18:25;;;;;;;31.62;14.73;;;;;;;7.64;96.93;99605.88;1761312;81;21042;-41
2022/12/25 10:20:56;;;;;;;24.90;12.60;;;;;;;7.65;97.28;99601.48;1761326;80;21456;-38
2022/12/25 10:23:27;;;;;;;28.92;17.92;;;;;;;7.71;97.10;99597.78;1761420;81;20979;-38
2022/12/25 10:25:54;;;;;;;25.37;12.60;;;;;;;7.70;96.66;99599.55;1760685;81;20976;-39
2022/12/25 10:28:40;;;;;;;24.37;12.40;;;;;;;7.76;96.71;99597.15;1761566;81;20975;-41
2022/12/25 10:31:25;;;;;;;26.57;12.05;;;;;;;7.75;96.33;99601.98;1761265;80;20991;-39
2022/12/25 10:33:52;;;;;;;22.87;11.08;;;;;;;7.78;96.39;99596.63;1761399;81;21524;-38
2022/12/25 10:36:26;;;;;;;25.48;11.70;;;;;;;7.78;96.22;99588.31;1761350;81;20998;-37
2022/12/25 10:38:53;;;;;;;26.07;12.35;;;;;;;7.84;96.28;99588.52;1761194;81;21030;-36
2022/12/25 10:41:39;;;;;;;28.12;15.23;;;;;;;7.91;96.67;99576.05;1761492;81;21034;-36
2022/12/25 10:44:19;;;;;;;25.73;12.80;;;;;;;7.98;96.48;99581.44;1760838;81;21038;-36
2022/12/25 10:46:49;;;;;;;23.02;12.58;;;;;;;7.95;95.62;99573.27;1760924;81;21173;-37
2022/12/25 10:49:19;;;;;;;32.58;14.68;;;;;;;8.08;95.75;99569.70;1761403;81;21489;-38
2022/12/25 10:51:44;;;;;;;22.55;12.50;;;;;;;8.07;94.88;99569.28;1761252;81;20989;-37
2022/12/25 10:54:27;;;;;;;28.38;13.00;;;;;;;8.13;95.32;99570.80;1761295;81;21018;-39
2022/12/25 10:57:00;;;;;;;22.52;11.78;;;;;;;8.18;94.74;99564.92;1761331;81;20995;-38
2022/12/25 10:59:29;;;;;;;28.67;11.95;;;;;;;8.22;94.72;99570.42;1761359;81;21045;-38
2022/12/25 11:01:59;;;;;;;26.30;13.35;;;;;;;8.24;94.90;99573.83;1761257;80;21436;-38
2022/12/25 11:04:27;;;;;;;31.10;13.48;;;;;;;8.27;94.37;99581.10;1760289;80;20960;-37
2022/12/25 11:07:18;;;;;;;21.37;12.90;;;;;;;8.27;93.91;99585.03;1761504;81;20995;-39
2022/12/25 11:09:57;;;;;;;27.48;13.75;;;;;;;8.22;93.37;99580.90;1761021;81;21527;-38
2022/12/25 11:12:41;;;;;;;31.73;15.32;;;;;;;8.22;93.70;99571.73;1761420;81;20995;-38
2022/12/25 11:15:31;;;;;;;29.15;15.25;;;;;;;8.27;93.95;99571.93;1761485;81;20971;-39
2022/12/25 11:17:57;;;;;;;37.75;18.55;;;;;;;8.27;94.01;99569.78;1761461;81;21007;-40
2022/12/25 11:20:23;;;;;;;31.37;19.20;;;;;;;8.22;94.05;99575.66;1761458;81;20972;-37
2022/12/25 11:22:49;;;;;;;27.93;15.23;;;;;;;8.25;94.27;99567.69;1761398;81;20994;-37
2022/12/25 11:25:26;;;;;;;25.88;13.45;;;;;;;8.25;94.09;99570.30;1761367;81;21026;-40
2022/12/25 11:28:01;;;;;;;28.27;14.13;;;;;;;8.25;94.15;99565.06;1761612;80;21151;-40
2022/12/25 11:30:31;;;;;;;23.85;12.73;;;;;;;8.24;93.74;99564.22;1761450;81;21024;-38
2022/12/25 11:33:04;;;;;;;24.60;14.15;;;;;;;8.25;93.38;99558.05;1761464;81;20999;-38
2022/12/25 11:35:35;;;;;;;37.30;21.17;;;;;;;8.26;93.11;99555.84;1761416;81;21042;-38
2022/12/25 11:38:02;;;;;;;22.45;11.65;;;;;;;8.25;92.87;99556.73;1761177;81;21472;-40
2022/12/25 11:40:36;;;;;;;19.65;11.43;;;;;;;8.25;92.49;99557.20;1761559;81;21031;-39
2022/12/25 11:43:21;;;;;;;18.57;10.23;;;;;;;8.25;92.29;99551.97;1744459;81;20992;-38
2022/12/25 11:45:59;;;;;;;20.20;11.00;;;;;;;8.25;92.14;99563.75;1748833;81;21024;-39
2022/12/25 11:48:33;;;;;;;29.50;11.20;;;;;;;8.23;91.80;99553.33;1745343;81;20988;-39
2022/12/25 11:51:01;;;;;;;24.80;11.85;;;;;;;8.11;91.28;99547.75;1747709;81;21031;-37
2022/12/25 11:53:47;;;;;;;25.05;13.80;;;;;;;8.17;91.88;99548.36;1737572;82;21512;-38
2022/12/25 11:56:28;;;;;;;23.55;13.65;;;;;;;8.20;92.00;99553.91;1748070;82;20996;-39
2022/12/25 11:59:07;;;;;;;26.25;14.98;;;;;;;8.19;92.00;99556.16;1748130;81;21024;-39
2022/12/25 12:01:54;;;;;;;22.13;11.78;;;;;;;8.21;92.21;99555.63;1748124;81;20987;-38
2022/12/25 12:04:34;;;;;;;26.35;13.35;;;;;;;8.17;91.33;99552.75;1746838;81;21004;-39
2022/12/25 12:07:17;;;;;;;29.10;17.48;;;;;;;8.21;91.67;99555.16;1748069;81;20976;-37
2022/12/25 12:10:07;;;;;;;23.32;11.08;;;;;;;8.30;91.87;99559.18;1748128;82;21030;-38
2022/12/25 12:13:08;;;;;;;28.67;15.23;;;;;;;8.33;91.34;99555.13;1747911;81;20975;-39
2022/12/25 12:15:49;;;;;;;29.35;14.73;;;;;;;8.30;90.43;99564.42;1747747;81;20988;-37
2022/12/25 12:18:26;;;;;;;22.80;11.10;;;;;;;8.27;89.84;99569.78;1748074;81;21035;-40
2022/12/25 12:21:19;;;;;;;19.23;9.80;;;;;;;8.23;89.21;99569.52;1748097;81;20988;-39
2022/12/25 12:24:14;;;;;;;17.80;8.20;;;;;;;8.23;89.21;99569.52;1748156;81;21046;-37
2022/12/25 12:26:44;;;;;;;19.92;9.05;;;;;;;8.22;89.04;99579.16;1747986;81;20984;-38
2022/12/25 12:29:24;;;;;;;21.93;11.22;;;;;;;8.30;89.75;99572.75;1748068;82;21007;-37
2022/12/25 12:31:51;;;;;;;16.23;8.35;;;;;;;8.34;89.60;99576.47;1748005;81;21011;-40
2022/12/25 12:34:30;;;;;;;15.43;8.18;;;;;;;8.37;89.11;99577.66;1748176;82;21027;-38
2022/12/25 12:37:19;;;;;;;26.12;14.65;;;;;;;8.36;88.83;99572.02;1746936;81;21035;-38
2022/12/25 12:39:50;;;;;;;18.82;10.90;;;;;;;8.37;88.58;99565.87;1748090;81;21000;-40
2022/12/25 12:42:29;;;;;;;16.70;9.28;;;;;;;8.34;89.30;99562.52;1747864;81;21040;-37
2022/12/25 12:44:59;;;;;;;18.52;10.20;;;;;;;8.27;89.23;99560.14;1754165;81;21042;-39
2022/12/25 12:47:45;;;;;;;20.95;12.18;;;;;;;8.17;89.54;99554.06;1760601;81;20978;-38
2022/12/25 12:50:36;;;;;;;19.15;10.63;;;;;;;8.18;89.74;99555.75;1761320;81;20993;-38
2022/12/25 12:53:27;;;;;;;20.12;10.85;;;;;;;8.13;89.78;99564.25;1761609;81;20991;-39
2022/12/25 12:55:53;;;;;;;20.30;10.75;;;;;;;8.11;90.05;99556.91;1761329;81;20999;-38
2022/12/25 12:58:34;;;;;;;22.52;11.83;;;;;;;8.07;90.18;99558.34;1761303;81;20971;-38
2022/12/25 13:01:11;;;;;;;22.65;12.33;;;;;;;8.02;90.29;99561.63;1761346;80;21512;-39
2022/12/25 13:04:00;;;;;;;26.50;12.40;;;;;;;8.01;90.47;99560.38;1735771;81;21449;-39
2022/12/25 13:06:40;;;;;;;19.40;12.30;;;;;;;8.00;90.47;99565.20;1761413;81;21007;-39
2022/12/25 13:09:26;;;;;;;23.05;12.90;;;;;;;7.96;90.49;99565.78;1761389;81;21485;-38
2022/12/25 13:11:52;;;;;;;21.00;12.73;;;;;;;7.98;90.87;99569.19;1761892;80;21035;-39
2022/12/25 13:14:21;;;;;;;21.75;13.03;;;;;;;7.97;90.65;99569.28;1761354;81;21046;-38
2022/12/25 13:16:51;;;;;;;19.65;11.97;;;;;;;7.98;90.81;99573.13;1761400;81;21468;-39
2022/12/25 13:19:25;;;;;;;26.27;12.55;;;;;;;7.96;90.49;99570.18;1761501;81;21046;-39
2022/12/25 13:22:00;;;;;;;29.85;13.40;;;;;;;7.94;90.56;99578.09;1761309;81;20967;-40
2022/12/25 13:24:33;;;;;;;20.25;11.80;;;;;;;7.94;90.53;99578.56;1761367;81;21003;-37
2022/12/25 13:26:59;;;;;;;21.85;12.68;;;;;;;7.98;90.64;99580.98;1761354;80;20987;-38
2022/12/25 13:29:31;;;;;;;24.32;14.63;;;;;;;7.97;90.48;99571.44;1761505;81;21516;-38
2022/12/25 13:31:58;;;;;;;25.10;14.45;;;;;;;8.01;90.58;99574.31;1761380;80;20994;-39